Aviation Digital Data Service (ADDS)

Output produced by TAFs form (2047 UTC 24 June 2018)
found at http://www.aviationweather.gov/adds/tafs/
 
KHKY 241953Z 27008G15KT 10SM FEW060 34/18 A2997 RMK AO2 SLP123 T03390183
KHKY 241724Z 2418/2518 25010KT P6SM SCT060 
     TEMPO 2420/2424 VRB15G25KT 4SM -TSRA BKN050CB 
     FM250100 30006KT P6SM FEW050 
     FM251200 34003KT P6SM SCT060